Time;durP1;ratioP1;P1;durP2;ratioP2;P2;SDS_P1;SDS_P2;PMS_P1;PMS_P2;Temp;Humidity;BMP_temperature;BMP_pressure;BME280_temperature;BME280_humidity;BME280_pressure;Samples;Min_cycle;Max_cycle;Signal;HPM_P1;HPM_P2
2023/03/12 00:01:17;;;;;;;42.72;34.30;;;;;;;;;;5047379;28;20083;-73
2023/03/12 00:03:43;;;;;;;43.60;32.45;;;;;;;;;;5044193;28;20048;-73
2023/03/12 00:06:09;;;;;;;40.92;33.53;;;;;;;;;;5048103;28;20041;-73
2023/03/12 00:08:35;;;;;;;41.80;34.53;;;;;;;;;;5046607;28;20076;-73
2023/03/12 00:11:05;;;;;;;42.15;31.92;;;;;;;;;;5046999;28;20032;-73
2023/03/12 00:13:31;;;;;;;32.20;25.05;;;;;;;;;;5044373;28;20032;-73
2023/03/12 00:16:02;;;;;;;33.95;27.38;;;;;;;;;;5047753;28;20040;-73
2023/03/12 00:18:28;;;;;;;36.85;29.00;;;;;;;;;;5047289;28;20052;-73
2023/03/12 00:20:55;;;;;;;54.50;39.38;;;;;;;;;;5044169;28;20033;-73
2023/03/12 00:23:21;;;;;;;34.08;27.70;;;;;;;;;;5044548;28;20835;-73
2023/03/12 00:25:47;;;;;;;34.38;25.27;;;;;;;;;;5051613;28;20044;-73
2023/03/12 00:28:13;;;;;;;30.77;24.48;;;;;;;;;;5041907;28;20029;-73
2023/03/12 00:30:39;;;;;;;30.85;24.23;;;;;;;;;;5048175;28;20557;-73
2023/03/12 00:33:05;;;;;;;28.55;22.80;;;;;;;;;;5042486;28;20025;-73
2023/03/12 00:35:31;;;;;;;39.15;29.05;;;;;;;;;;5046551;28;20029;-73
2023/03/12 00:37:57;;;;;;;36.83;28.48;;;;;;;;;;5043639;28;20490;-73
2023/03/12 00:40:23;;;;;;;27.80;22.60;;;;;;;;;;5048298;28;20082;-73
2023/03/12 00:42:49;;;;;;;33.22;23.50;;;;;;;;;;5045607;28;20486;-74
2023/03/12 00:45:15;;;;;;;35.55;26.85;;;;;;;;;;5047659;28;20117;-73
2023/03/12 00:47:41;;;;;;;32.42;24.10;;;;;;;;;;5045755;28;20056;-73
2023/03/12 00:50:08;;;;;;;46.05;32.22;;;;;;;;;;5047282;28;20072;-74
2023/03/12 00:52:34;;;;;;;57.97;36.85;;;;;;;;;;5042337;28;20044;-73
2023/03/12 00:55:00;;;;;;;63.25;41.15;;;;;;;;;;5024591;28;20033;-73
2023/03/12 00:57:26;;;;;;;53.03;33.33;;;;;;;;;;5044670;28;20067;-73
2023/03/12 00:59:52;;;;;;;36.53;24.83;;;;;;;;;;5046408;28;20025;-73
2023/03/12 01:02:18;;;;;;;44.10;30.95;;;;;;;;;;5048817;28;20060;-73
2023/03/12 01:04:44;;;;;;;51.30;33.97;;;;;;;;;;5041768;28;20569;-73
2023/03/12 01:07:10;;;;;;;42.05;31.40;;;;;;;;;;5042993;28;20139;-73
2023/03/12 01:09:36;;;;;;;42.10;28.58;;;;;;;;;;5040965;28;20029;-73
2023/03/12 01:12:02;;;;;;;37.67;28.13;;;;;;;;;;5044853;28;20036;-73
2023/03/12 01:14:28;;;;;;;54.50;35.33;;;;;;;;;;5035571;28;20041;-73
2023/03/12 01:16:54;;;;;;;46.70;34.72;;;;;;;;;;5048867;28;20032;-73
2023/03/12 01:19:20;;;;;;;45.58;32.40;;;;;;;;;;5047250;28;20367;-73
2023/03/12 01:21:46;;;;;;;63.88;42.22;;;;;;;;;;5042980;28;20045;-73
2023/03/12 01:24:12;;;;;;;58.72;41.83;;;;;;;;;;5041614;28;20029;-73
2023/03/12 01:26:38;;;;;;;40.08;28.95;;;;;;;;;;5042700;28;20055;-73
2023/03/12 01:29:04;;;;;;;35.08;27.20;;;;;;;;;;5047552;28;20029;-73
2023/03/12 01:31:30;;;;;;;35.00;27.15;;;;;;;;;;5049437;28;20057;-73
2023/03/12 01:33:57;;;;;;;43.95;29.23;;;;;;;;;;5043460;28;20029;-73
2023/03/12 01:36:24;;;;;;;31.23;23.42;;;;;;;;;;5047353;28;20033;-73
2023/03/12 01:38:51;;;;;;;25.45;20.42;;;;;;;;;;5041730;28;20029;-73
2023/03/12 01:41:17;;;;;;;30.17;24.50;;;;;;;;;;5045304;28;20041;-73
2023/03/12 01:43:43;;;;;;;43.83;32.88;;;;;;;;;;5043855;28;20661;-74
2023/03/12 01:46:22;;;;;;;25.70;20.45;;;;;;;;;;5042067;28;20028;-73
2023/03/12 01:48:50;;;;;;;45.47;32.40;;;;;;;;;;5043457;28;20057;-73
2023/03/12 01:51:18;;;;;;;41.03;30.52;;;;;;;;;;5046708;28;20033;-73
2023/03/12 01:53:46;;;;;;;39.50;29.42;;;;;;;;;;5045485;28;20047;-73
2023/03/12 01:56:13;;;;;;;35.33;25.77;;;;;;;;;;5051212;28;20047;-73
2023/03/12 01:58:40;;;;;;;32.65;26.05;;;;;;;;;;5044500;28;20044;-73
2023/03/12 02:01:07;;;;;;;27.02;18.00;;;;;;;;;;5045920;28;20566;-73
2023/03/12 02:03:34;;;;;;;27.23;17.08;;;;;;;;;;5044894;28;20634;-73
2023/03/12 02:06:05;;;;;;;23.83;15.55;;;;;;;;;;5042955;28;20079;-73
2023/03/12 02:08:31;;;;;;;39.90;23.38;;;;;;;;;;5044125;28;20055;-74
2023/03/12 02:10:57;;;;;;;37.13;22.55;;;;;;;;;;5046280;28;20048;-74
2023/03/12 02:13:23;;;;;;;39.22;26.08;;;;;;;;;;5043884;28;20104;-73
2023/03/12 02:15:49;;;;;;;38.00;24.67;;;;;;;;;;5045320;28;20052;-73
2023/03/12 02:18:17;;;;;;;26.90;19.98;;;;;;;;;;5037447;28;20173;-73
2023/03/12 02:21:03;;;;;;;32.28;22.85;;;;;;;;;;5038395;28;20157;-74
2023/03/12 02:23:30;;;;;;;24.20;17.48;;;;;;;;;;5040895;28;20029;-73
2023/03/12 02:25:56;;;;;;;13.85;9.98;;;;;;;;;;5048104;28;20695;-73
2023/03/12 02:28:24;;;;;;;22.52;16.83;;;;;;;;;;5043130;28;20029;-73
2023/03/12 02:30:52;;;;;;;19.33;15.27;;;;;;;;;;5048373;28;20022;-73
2023/03/12 02:33:18;;;;;;;24.15;17.40;;;;;;;;;;5038409;28;20056;-73
2023/03/12 02:35:46;;;;;;;19.23;13.25;;;;;;;;;;5054805;28;20367;-73
2023/03/12 02:38:47;;;;;;;18.38;10.30;;;;;;;;;;5042291;28;20037;-73
2023/03/12 02:41:16;;;;;;;14.35;9.60;;;;;;;;;;4971761;28;20686;-73
2023/03/12 02:43:46;;;;;;;14.75;10.02;;;;;;;;;;5023385;28;20057;-73
2023/03/12 02:46:12;;;;;;;18.45;14.18;;;;;;;;;;5051844;28;20546;-73
2023/03/12 02:48:38;;;;;;;14.25;10.65;;;;;;;;;;5048201;28;20559;-73
2023/03/12 02:51:04;;;;;;;10.23;7.65;;;;;;;;;;5049251;28;20152;-73
2023/03/12 02:53:30;;;;;;;12.00;7.68;;;;;;;;;;5046271;28;20029;-73
2023/03/12 02:55:56;;;;;;;13.38;10.38;;;;;;;;;;5048947;28;20052;-73
2023/03/12 02:58:22;;;;;;;11.95;9.50;;;;;;;;;;5047849;28;20036;-73
2023/03/12 03:00:48;;;;;;;12.02;8.93;;;;;;;;;;5047189;28;20029;-73
2023/03/12 03:03:14;;;;;;;8.93;6.93;;;;;;;;;;5048676;28;20055;-73
2023/03/12 03:05:40;;;;;;;8.25;5.38;;;;;;;;;;5050804;28;20655;-74
2023/03/12 03:08:06;;;;;;;10.57;7.22;;;;;;;;;;5033642;28;20662;-73
2023/03/12 03:10:32;;;;;;;8.15;6.40;;;;;;;;;;5049941;28;20024;-73
2023/03/12 03:12:58;;;;;;;10.98;8.20;;;;;;;;;;5052470;28;20533;-73
2023/03/12 03:15:24;;;;;;;9.02;6.43;;;;;;;;;;5046887;28;20041;-73
2023/03/12 03:17:50;;;;;;;9.40;6.25;;;;;;;;;;5044002;28;20059;-73
2023/03/12 03:20:16;;;;;;;9.52;7.57;;;;;;;;;;5051394;28;20071;-73
2023/03/12 03:22:42;;;;;;;9.65;7.07;;;;;;;;;;5047083;28;20112;-73
2023/03/12 03:25:09;;;;;;;10.43;7.88;;;;;;;;;;5044444;28;20052;-73
2023/03/12 03:27:35;;;;;;;10.93;7.18;;;;;;;;;;5046851;28;20052;-73
2023/03/12 03:30:01;;;;;;;10.45;7.32;;;;;;;;;;5046544;28;20475;-73
2023/03/12 03:32:27;;;;;;;9.02;6.45;;;;;;;;;;5044356;28;20029;-73
2023/03/12 03:34:54;;;;;;;7.18;4.80;;;;;;;;;;5044983;28;20442;-73
2023/03/12 03:37:19;;;;;;;8.00;4.03;;;;;;;;;;5043723;28;20051;-73
2023/03/12 03:39:46;;;;;;;5.57;3.42;;;;;;;;;;5048073;28;20478;-73
2023/03/12 03:42:12;;;;;;;7.55;3.25;;;;;;;;;;5046417;28;20042;-73
2023/03/12 03:44:38;;;;;;;6.07;4.03;;;;;;;;;;5048583;28;20035;-73
2023/03/12 03:47:04;;;;;;;8.32;5.13;;;;;;;;;;5046115;28;20037;-73
2023/03/12 03:49:30;;;;;;;7.35;5.05;;;;;;;;;;5040148;28;20457;-73
2023/03/12 03:51:56;;;;;;;8.23;5.30;;;;;;;;;;5052237;28;20028;-73
2023/03/12 03:54:22;;;;;;;9.43;5.68;;;;;;;;;;5047136;28;20040;-73
2023/03/12 03:56:48;;;;;;;9.00;5.40;;;;;;;;;;5045837;28;20036;-73
2023/03/12 03:59:14;;;;;;;9.68;6.03;;;;;;;;;;5044582;28;20064;-74
2023/03/12 04:01:40;;;;;;;7.88;5.70;;;;;;;;;;5049903;28;20141;-73
2023/03/12 04:04:06;;;;;;;8.85;5.78;;;;;;;;;;5043118;28;20143;-73
2023/03/12 04:06:32;;;;;;;8.20;6.20;;;;;;;;;;5043867;28;20082;-73
2023/03/12 04:08:58;;;;;;;8.85;4.78;;;;;;;;;;5037372;28;20265;-73
2023/03/12 04:11:24;;;;;;;8.80;5.88;;;;;;;;;;5047856;28;20029;-73
2023/03/12 04:13:50;;;;;;;8.57;5.20;;;;;;;;;;5044314;28;20029;-74
2023/03/12 04:16:17;;;;;;;7.07;4.32;;;;;;;;;;5046320;28;20127;-73
2023/03/12 04:18:43;;;;;;;6.78;4.43;;;;;;;;;;5026208;28;20522;-73
2023/03/12 04:21:10;;;;;;;7.18;4.80;;;;;;;;;;5048146;28;20094;-74
2023/03/12 04:23:36;;;;;;;6.82;4.38;;;;;;;;;;5043160;28;20477;-73
2023/03/12 04:26:02;;;;;;;9.55;5.28;;;;;;;;;;5051492;28;20474;-74
2023/03/12 04:28:28;;;;;;;8.43;5.30;;;;;;;;;;5044740;28;20087;-73
2023/03/12 04:30:55;;;;;;;10.30;5.45;;;;;;;;;;5046655;28;20040;-74
2023/03/12 04:33:21;;;;;;;9.18;5.60;;;;;;;;;;5045810;28;20086;-74
2023/03/12 04:35:51;;;;;;;7.75;5.32;;;;;;;;;;5049801;28;20033;-74
2023/03/12 04:38:18;;;;;;;8.38;4.95;;;;;;;;;;5046266;28;20032;-74
2023/03/12 04:40:44;;;;;;;7.97;4.03;;;;;;;;;;5047999;28;20131;-73
2023/03/12 04:43:10;;;;;;;9.02;4.10;;;;;;;;;;5043146;28;20135;-73
2023/03/12 04:45:38;;;;;;;9.60;4.47;;;;;;;;;;5051280;28;20040;-73
2023/03/12 04:48:04;;;;;;;7.40;4.95;;;;;;;;;;5042450;28;20184;-73
2023/03/12 04:50:30;;;;;;;7.95;4.43;;;;;;;;;;5048447;28;20033;-73
2023/03/12 04:52:56;;;;;;;11.95;4.47;;;;;;;;;;5022472;28;20037;-73
2023/03/12 04:55:22;;;;;;;14.95;6.18;;;;;;;;;;5047480;28;20045;-73
2023/03/12 04:57:48;;;;;;;9.95;6.03;;;;;;;;;;5044291;28;20111;-73
2023/03/12 05:00:14;;;;;;;11.27;7.70;;;;;;;;;;5045692;28;20032;-73
2023/03/12 05:02:41;;;;;;;10.68;6.90;;;;;;;;;;5045338;28;20071;-73
2023/03/12 05:05:07;;;;;;;10.63;7.13;;;;;;;;;;5043895;28;20044;-73
2023/03/12 05:07:33;;;;;;;10.10;6.93;;;;;;;;;;5041727;28;20112;-73
2023/03/12 05:09:59;;;;;;;8.80;6.10;;;;;;;;;;5045806;28;20034;-73
2023/03/12 05:12:25;;;;;;;8.60;5.85;;;;;;;;;;5047203;28;20057;-73
2023/03/12 05:14:51;;;;;;;9.93;7.45;;;;;;;;;;5042432;28;20072;-73
2023/03/12 05:17:17;;;;;;;9.65;4.63;;;;;;;;;;5047617;28;20474;-73
2023/03/12 05:19:43;;;;;;;7.03;4.47;;;;;;;;;;5040392;28;20033;-73
2023/03/12 05:22:09;;;;;;;7.88;4.10;;;;;;;;;;5051640;28;20041;-73
2023/03/12 05:24:35;;;;;;;7.63;4.32;;;;;;;;;;5043574;28;20040;-73
2023/03/12 05:27:01;;;;;;;8.93;4.78;;;;;;;;;;5046330;28;20421;-73
2023/03/12 05:29:34;;;;;;;9.35;5.80;;;;;;;;;;5044631;28;20469;-74
2023/03/12 05:32:00;;;;;;;10.63;5.22;;;;;;;;;;5045522;28;20033;-73
2023/03/12 05:34:27;;;;;;;13.55;7.30;;;;;;;;;;5045023;28;20502;-73
2023/03/12 05:36:53;;;;;;;12.75;8.40;;;;;;;;;;5044219;28;20044;-73
2023/03/12 05:39:19;;;;;;;15.43;9.30;;;;;;;;;;5045809;28;20025;-73
2023/03/12 05:41:46;;;;;;;9.57;6.35;;;;;;;;;;5026274;28;20064;-73
2023/03/12 05:44:16;;;;;;;9.70;5.70;;;;;;;;;;5044397;28;20794;-73
2023/03/12 05:46:42;;;;;;;10.75;6.88;;;;;;;;;;5044773;28;20048;-73
2023/03/12 05:49:09;;;;;;;9.50;5.20;;;;;;;;;;5041489;28;20032;-73
2023/03/12 05:51:35;;;;;;;6.72;4.32;;;;;;;;;;5042120;28;20900;-73
2023/03/12 05:54:01;;;;;;;7.43;3.97;;;;;;;;;;5043209;28;20036;-73
2023/03/12 05:56:27;;;;;;;6.22;3.45;;;;;;;;;;5044022;28;20421;-73
2023/03/12 05:58:53;;;;;;;7.85;4.35;;;;;;;;;;5027409;28;20120;-73
2023/03/12 06:01:21;;;;;;;12.43;6.38;;;;;;;;;;5026017;28;20052;-73
2023/03/12 06:03:47;;;;;;;11.00;6.00;;;;;;;;;;5043443;28;20036;-73
2023/03/12 06:06:13;;;;;;;10.07;5.72;;;;;;;;;;5038372;28;20037;-73
2023/03/12 06:08:40;;;;;;;10.65;7.25;;;;;;;;;;5042674;28;20032;-73
2023/03/12 06:11:06;;;;;;;17.83;9.10;;;;;;;;;;5046655;28;20035;-73
2023/03/12 06:13:32;;;;;;;20.13;9.02;;;;;;;;;;5044303;28;20139;-73
2023/03/12 06:16:03;;;;;;;16.98;8.00;;;;;;;;;;5043148;28;20033;-73
2023/03/12 06:18:29;;;;;;;11.90;6.30;;;;;;;;;;5046313;28;20052;-73
2023/03/12 06:20:55;;;;;;;11.80;5.80;;;;;;;;;;5043889;28;20040;-73
2023/03/12 06:23:21;;;;;;;11.27;5.97;;;;;;;;;;5047599;28;20029;-73
2023/03/12 06:25:47;;;;;;;8.90;5.97;;;;;;;;;;5047358;28;20048;-73
2023/03/12 06:28:13;;;;;;;10.90;6.40;;;;;;;;;;5048998;28;20029;-73
2023/03/12 06:30:39;;;;;;;8.95;5.90;;;;;;;;;;5047203;28;20139;-73
2023/03/12 06:33:07;;;;;;;9.63;6.28;;;;;;;;;;5051065;28;20741;-73
2023/03/12 06:35:34;;;;;;;10.82;7.10;;;;;;;;;;5043027;28;20028;-73
2023/03/12 06:38:00;;;;;;;16.70;9.70;;;;;;;;;;5049365;28;20103;-73
2023/03/12 06:40:26;;;;;;;17.73;10.73;;;;;;;;;;5043014;28;20071;-73
2023/03/12 06:42:52;;;;;;;23.67;15.35;;;;;;;;;;5047106;28;20132;-73
2023/03/12 06:45:18;;;;;;;13.98;9.38;;;;;;;;;;5045635;28;20055;-73
2023/03/12 06:47:44;;;;;;;15.38;8.10;;;;;;;;;;5029685;28;20411;-73
2023/03/12 06:50:10;;;;;;;18.23;10.48;;;;;;;;;;5042006;28;20025;-73
2023/03/12 06:52:36;;;;;;;11.02;7.22;;;;;;;;;;5041465;28;20112;-73
2023/03/12 06:55:02;;;;;;;9.85;6.53;;;;;;;;;;5047278;28;20132;-74
2023/03/12 06:57:28;;;;;;;8.13;4.82;;;;;;;;;;5045559;28;20517;-73
2023/03/12 06:59:54;;;;;;;7.03;4.45;;;;;;;;;;5045026;28;20129;-73
2023/03/12 07:02:20;;;;;;;7.75;4.97;;;;;;;;;;5047838;28;20100;-73
2023/03/12 07:04:46;;;;;;;8.43;5.03;;;;;;;;;;5052497;28;20026;-73
2023/03/12 07:07:12;;;;;;;7.20;4.22;;;;;;;;;;5049911;28;20079;-73
2023/03/12 07:09:38;;;;;;;6.88;4.00;;;;;;;;;;5048322;28;20033;-73
2023/03/12 07:12:04;;;;;;;9.50;5.47;;;;;;;;;;5039650;28;20112;-73
2023/03/12 07:14:30;;;;;;;11.27;7.07;;;;;;;;;;5047914;28;20028;-73
2023/03/12 07:16:57;;;;;;;10.70;5.57;;;;;;;;;;5041363;28;20566;-73
2023/03/12 07:19:23;;;;;;;13.45;6.07;;;;;;;;;;5048597;28;20033;-74
2023/03/12 07:21:49;;;;;;;9.05;5.43;;;;;;;;;;5045248;28;20028;-73
2023/03/12 07:24:15;;;;;;;8.80;4.90;;;;;;;;;;5049418;28;20033;-73
2023/03/12 07:26:42;;;;;;;8.80;3.83;;;;;;;;;;5043591;28;20033;-73
2023/03/12 07:29:08;;;;;;;7.03;3.38;;;;;;;;;;5046699;28;20028;-73
2023/03/12 07:31:34;;;;;;;7.22;3.70;;;;;;;;;;5046347;28;20029;-73
2023/03/12 07:34:01;;;;;;;6.63;3.03;;;;;;;;;;5048524;28;20035;-73
2023/03/12 07:36:28;;;;;;;6.90;4.05;;;;;;;;;;5046519;28;20033;-73
2023/03/12 07:38:54;;;;;;;6.00;3.58;;;;;;;;;;5047459;28;20033;-73
2023/03/12 07:41:20;;;;;;;7.07;3.92;;;;;;;;;;5044472;28;20035;-73
2023/03/12 07:43:46;;;;;;;7.97;4.60;;;;;;;;;;5038599;28;20524;-73
2023/03/12 07:46:12;;;;;;;9.80;5.38;;;;;;;;;;5041629;28;20033;-73
2023/03/12 07:48:38;;;;;;;6.13;4.10;;;;;;;;;;5045330;28;20530;-74
2023/03/12 07:51:05;;;;;;;6.35;3.83;;;;;;;;;;5042671;28;20078;-73
2023/03/12 07:53:31;;;;;;;6.82;4.00;;;;;;;;;;5041285;28;20104;-73
2023/03/12 07:55:57;;;;;;;7.47;4.00;;;;;;;;;;5043137;28;20098;-73
2023/03/12 07:58:23;;;;;;;7.32;4.18;;;;;;;;;;5045032;28;20474;-73
2023/03/12 08:00:49;;;;;;;6.15;4.00;;;;;;;;;;5038452;28;20029;-73
2023/03/12 08:03:15;;;;;;;8.50;4.80;;;;;;;;;;5043537;28;20083;-73
2023/03/12 08:05:41;;;;;;;8.25;5.20;;;;;;;;;;5043667;28;20028;-73
2023/03/12 08:08:07;;;;;;;8.30;4.45;;;;;;;;;;5045474;28;20088;-72
2023/03/12 08:10:34;;;;;;;10.13;5.15;;;;;;;;;;5044017;28;20040;-73
2023/03/12 08:13:00;;;;;;;7.57;4.35;;;;;;;;;;5046014;28;20035;-72
2023/03/12 08:15:26;;;;;;;7.82;4.55;;;;;;;;;;5044852;28;20029;-73
2023/03/12 08:17:52;;;;;;;7.18;4.43;;;;;;;;;;5046431;28;20528;-73
2023/03/12 08:20:18;;;;;;;10.57;4.95;;;;;;;;;;5044138;28;20064;-72
2023/03/12 08:22:44;;;;;;;9.02;5.15;;;;;;;;;;5044851;28;20040;-73
2023/03/12 08:25:10;;;;;;;7.43;4.07;;;;;;;;;;5049378;28;20078;-73
2023/03/12 08:27:36;;;;;;;7.68;4.63;;;;;;;;;;5040980;28;20037;-73
2023/03/12 08:30:02;;;;;;;7.95;3.75;;;;;;;;;;5045493;28;20039;-73
2023/03/12 08:32:28;;;;;;;6.65;3.72;;;;;;;;;;5044112;28;20120;-72
2023/03/12 08:34:54;;;;;;;5.30;2.50;;;;;;;;;;5022601;28;20545;-72
2023/03/12 08:37:22;;;;;;;3.38;2.35;;;;;;;;;;5043622;28;20044;-72
2023/03/12 08:39:48;;;;;;;4.10;2.55;;;;;;;;;;5045125;28;20028;-72
2023/03/12 08:42:13;;;;;;;7.80;3.50;;;;;;;;;;5043947;28;20063;-72
2023/03/12 08:44:39;;;;;;;7.28;4.05;;;;;;;;;;5022953;28;20143;-72
2023/03/12 08:47:05;;;;;;;4.70;2.53;;;;;;;;;;5044742;28;20036;-72
2023/03/12 08:49:31;;;;;;;4.80;1.98;;;;;;;;;;5042756;28;20032;-72
2023/03/12 08:51:58;;;;;;;4.95;1.50;;;;;;;;;;5028833;28;20076;-72
2023/03/12 08:54:24;;;;;;;5.78;2.10;;;;;;;;;;5043597;28;20032;-72
2023/03/12 08:56:53;;;;;;;5.15;2.33;;;;;;;;;;5046246;28;20033;-72
2023/03/12 08:59:19;;;;;;;3.83;2.10;;;;;;;;;;5039598;28;20151;-72
2023/03/12 09:01:46;;;;;;;4.00;2.38;;;;;;;;;;5041286;28;20386;-72
2023/03/12 09:04:12;;;;;;;4.28;2.38;;;;;;;;;;5041582;28;20068;-72
2023/03/12 09:06:38;;;;;;;6.13;3.40;;;;;;;;;;5038724;28;20120;-72
2023/03/12 09:09:04;;;;;;;4.88;1.98;;;;;;;;;;5043299;28;20029;-72
2023/03/12 09:11:31;;;;;;;2.22;1.10;;;;;;;;;;5045594;28;20127;-72
2023/03/12 09:13:57;;;;;;;5.32;2.33;;;;;;;;;;5041303;28;20029;-72
2023/03/12 09:16:23;;;;;;;2.35;0.90;;;;;;;;;;5040235;28;20093;-72
2023/03/12 09:18:49;;;;;;;3.33;0.80;;;;;;;;;;5041901;28;20536;-72
2023/03/12 09:21:16;;;;;;;1.58;0.60;;;;;;;;;;5043507;28;20037;-71
2023/03/12 09:23:42;;;;;;;4.15;0.88;;;;;;;;;;5044648;28;20028;-71
2023/03/12 09:26:11;;;;;;;2.03;0.70;;;;;;;;;;5044515;28;20043;-72
2023/03/12 09:28:37;;;;;;;1.83;0.70;;;;;;;;;;5041426;28;20021;-72
2023/03/12 09:31:04;;;;;;;3.13;0.73;;;;;;;;;;5044241;28;20082;-72
2023/03/12 09:33:31;;;;;;;2.55;0.93;;;;;;;;;;5044765;28;20040;-72
2023/03/12 09:35:58;;;;;;;3.45;0.90;;;;;;;;;;5038552;28;20033;-72
2023/03/12 09:38:24;;;;;;;3.33;1.00;;;;;;;;;;5041671;28;20311;-71
2023/03/12 09:40:50;;;;;;;2.72;1.00;;;;;;;;;;5037341;28;20051;-72
2023/03/12 09:43:28;;;;;;;3.47;1.45;;;;;;;;;;5040257;28;20053;-72
2023/03/12 09:45:55;;;;;;;7.22;1.92;;;;;;;;;;5041226;28;20029;-71
2023/03/12 09:48:34;;;;;;;2.50;1.00;;;;;;;;;;5042883;28;20035;-72
2023/03/12 09:51:24;;;;;;;4.47;1.60;;;;;;;;;;5042234;28;20029;-72
2023/03/12 09:53:55;;;;;;;3.65;1.48;;;;;;;;;;5031457;28;20478;-72
2023/03/12 09:56:22;;;;;;;4.63;1.75;;;;;;;;;;5042101;28;20043;-72
2023/03/12 09:58:49;;;;;;;3.30;1.08;;;;;;;;;;5054517;28;20074;-72
2023/03/12 10:01:21;;;;;;;3.67;1.30;;;;;;;;;;5046758;28;20985;-72
2023/03/12 10:04:05;;;;;;;6.13;2.30;;;;;;;;;;5052033;28;20107;-72
2023/03/12 10:06:37;;;;;;;6.85;2.30;;;;;;;;;;5044570;28;20382;-72
2023/03/12 10:09:28;;;;;;;4.68;1.77;;;;;;;;;;5042847;28;20029;-72
2023/03/12 10:12:00;;;;;;;6.38;3.20;;;;;;;;;;5046084;28;20037;-72
2023/03/12 10:14:45;;;;;;;4.70;2.25;;;;;;;;;;5050727;28;20040;-72
2023/03/12 10:17:14;;;;;;;3.80;1.73;;;;;;;;;;5047192;28;20047;-72
2023/03/12 10:19:55;;;;;;;2.95;1.15;;;;;;;;;;5040719;28;20033;-72
2023/03/12 10:22:29;;;;;;;3.83;0.80;;;;;;;;;;5047233;28;20039;-72
2023/03/12 10:24:55;;;;;;;3.22;0.77;;;;;;;;;;5044792;28;20796;-72
2023/03/12 10:27:22;;;;;;;2.33;0.82;;;;;;;;;;5045310;28;20040;-72
2023/03/12 10:29:50;;;;;;;3.17;0.55;;;;;;;;;;5049829;28;20112;-72
2023/03/12 10:32:22;;;;;;;2.22;0.60;;;;;;;;;;5045886;28;20029;-72
2023/03/12 10:34:47;;;;;;;3.13;0.55;;;;;;;;;;5046421;28;20542;-72
2023/03/12 10:37:25;;;;;;;3.35;0.85;;;;;;;;;;5028600;28;20048;-73
2023/03/12 10:39:52;;;;;;;4.78;0.50;;;;;;;;;;5044873;28;20131;-72
2023/03/12 10:42:20;;;;;;;4.00;0.68;;;;;;;;;;5045759;28;20056;-72
2023/03/12 10:44:48;;;;;;;4.85;1.17;;;;;;;;;;5047543;28;20029;-72
2023/03/12 10:47:23;;;;;;;3.53;0.40;;;;;;;;;;5045957;28;20060;-72
2023/03/12 10:49:50;;;;;;;3.58;0.70;;;;;;;;;;5047497;28;20082;-72
2023/03/12 10:52:16;;;;;;;0.95;0.30;;;;;;;;;;5044388;28;20025;-72
2023/03/12 10:54:43;;;;;;;2.30;0.40;;;;;;;;;;5047168;28;20108;-72
2023/03/12 10:57:10;;;;;;;1.40;0.35;;;;;;;;;;5047104;28;20053;-72
2023/03/12 10:59:37;;;;;;;3.13;0.50;;;;;;;;;;5047319;28;20037;-72
2023/03/12 11:02:22;;;;;;;1.17;0.22;;;;;;;;;;5047814;28;20032;-72
2023/03/12 11:04:52;;;;;;;1.90;0.43;;;;;;;;;;5046224;28;20581;-72
2023/03/12 11:07:22;;;;;;;2.35;0.35;;;;;;;;;;5046510;28;20040;-72
2023/03/12 11:10:03;;;;;;;0.75;0.22;;;;;;;;;;5046736;28;20366;-72
2023/03/12 11:12:30;;;;;;;2.72;0.30;;;;;;;;;;5025711;28;20037;-72
2023/03/12 11:14:57;;;;;;;2.55;0.50;;;;;;;;;;5044107;28;20029;-72
2023/03/12 11:17:24;;;;;;;1.65;0.30;;;;;;;;;;5044174;28;20071;-72
2023/03/12 11:19:50;;;;;;;2.35;0.55;;;;;;;;;;5044137;28;20029;-72
2023/03/12 11:22:27;;;;;;;1.40;0.30;;;;;;;;;;5043775;28;20041;-72
2023/03/12 11:25:01;;;;;;;3.00;0.60;;;;;;;;;;5050314;28;20059;-72
2023/03/12 11:27:45;;;;;;;2.40;0.45;;;;;;;;;;5044060;28;20363;-72
2023/03/12 11:30:14;;;;;;;2.63;0.70;;;;;;;;;;5045709;28;20036;-72
2023/03/12 11:32:41;;;;;;;3.53;0.50;;;;;;;;;;5040566;28;20029;-72
2023/03/12 11:35:11;;;;;;;3.88;0.70;;;;;;;;;;5046930;28;20095;-72
2023/03/12 11:37:43;;;;;;;6.32;0.90;;;;;;;;;;5039369;28;20044;-72
2023/03/12 11:40:12;;;;;;;5.70;0.95;;;;;;;;;;5040659;28;20364;-72
2023/03/12 11:43:04;;;;;;;3.85;0.80;;;;;;;;;;5043310;28;20079;-72
2023/03/12 11:45:33;;;;;;;5.43;1.02;;;;;;;;;;5046250;28;20123;-72
2023/03/12 11:47:59;;;;;;;6.22;0.80;;;;;;;;;;5023481;28;20125;-72
2023/03/12 11:50:45;;;;;;;5.10;0.50;;;;;;;;;;5040425;28;20104;-72
2023/03/12 11:53:30;;;;;;;4.43;0.73;;;;;;;;;;5046227;28;20041;-72
2023/03/12 11:56:03;;;;;;;4.70;0.85;;;;;;;;;;5045280;28;20788;-72
2023/03/12 11:58:51;;;;;;;3.22;0.70;;;;;;;;;;5042104;28;20220;-72
2023/03/12 12:01:20;;;;;;;2.88;0.60;;;;;;;;;;5045371;28;20140;-72
2023/03/12 12:03:56;;;;;;;4.53;1.17;;;;;;;;;;5042207;28;20107;-72
2023/03/12 12:06:41;;;;;;;5.93;1.30;;;;;;;;;;5046760;28;20447;-72
2023/03/12 12:09:13;;;;;;;5.57;0.82;;;;;;;;;;5019395;28;20397;-72
2023/03/12 12:11:44;;;;;;;4.70;1.02;;;;;;;;;;5041364;28;20029;-72
2023/03/12 12:14:19;;;;;;;3.45;0.60;;;;;;;;;;5042497;28;20021;-72
2023/03/12 12:16:45;;;;;;;5.95;0.88;;;;;;;;;;5041485;28;20040;-71
2023/03/12 12:19:27;;;;;;;3.38;0.50;;;;;;;;;;5043465;28;20043;-72
2023/03/12 12:22:05;;;;;;;3.03;0.47;;;;;;;;;;5041863;28;20039;-71
2023/03/12 12:24:35;;;;;;;4.25;0.70;;;;;;;;;;5044693;28;20060;-72
2023/03/12 12:27:07;;;;;;;5.25;0.68;;;;;;;;;;5045773;28;20446;-72
2023/03/12 12:29:39;;;;;;;4.25;0.85;;;;;;;;;;5046156;28;20032;-72
2023/03/12 12:32:08;;;;;;;4.07;0.60;;;;;;;;;;5038649;28;20060;-71
2023/03/12 12:34:53;;;;;;;3.30;0.70;;;;;;;;;;5046315;28;20032;-72
2023/03/12 12:37:37;;;;;;;3.38;0.60;;;;;;;;;;5041170;28;20378;-72
2023/03/12 12:40:15;;;;;;;4.50;1.08;;;;;;;;;;5045668;28;20144;-72
2023/03/12 12:42:53;;;;;;;4.45;1.15;;;;;;;;;;5042808;28;20068;-72
2023/03/12 12:45:19;;;;;;;4.03;0.93;;;;;;;;;;5047754;28;20063;-72
2023/03/12 12:47:48;;;;;;;4.60;0.88;;;;;;;;;;5044107;28;20394;-71
2023/03/12 12:50:19;;;;;;;4.38;0.70;;;;;;;;;;5046362;28;20036;-72
2023/03/12 12:52:48;;;;;;;6.03;1.10;;;;;;;;;;5039714;28;20820;-72
2023/03/12 12:55:37;;;;;;;2.83;0.60;;;;;;;;;;5045845;28;20048;-72
2023/03/12 12:58:07;;;;;;;2.88;0.60;;;;;;;;;;5042360;28;20062;-72
2023/03/12 13:00:39;;;;;;;6.55;0.90;;;;;;;;;;5047209;28;20033;-72
2023/03/12 13:03:06;;;;;;;3.38;0.60;;;;;;;;;;5043412;28;20044;-72
2023/03/12 13:05:51;;;;;;;2.45;0.60;;;;;;;;;;5046769;28;20029;-72
2023/03/12 13:08:35;;;;;;;2.47;0.50;;;;;;;;;;5040073;28;20041;-72
2023/03/12 13:11:05;;;;;;;4.15;0.60;;;;;;;;;;5044403;28;20029;-72
2023/03/12 13:13:32;;;;;;;1.60;0.40;;;;;;;;;;5043501;28;20036;-72
2023/03/12 13:16:18;;;;;;;1.92;0.50;;;;;;;;;;5047548;28;20634;-72
2023/03/12 13:18:55;;;;;;;1.63;0.43;;;;;;;;;;5041266;28;20041;-72
2023/03/12 13:21:28;;;;;;;1.48;0.30;;;;;;;;;;5047718;28;20052;-72
2023/03/12 13:24:18;;;;;;;2.00;0.35;;;;;;;;;;5041862;28;20131;-72
2023/03/12 13:26:56;;;;;;;2.88;0.30;;;;;;;;;;4999617;28;20518;-72
2023/03/12 13:29:37;;;;;;;3.13;0.52;;;;;;;;;;5042725;28;20068;-72
2023/03/12 13:32:04;;;;;;;1.07;0.17;;;;;;;;;;5042580;28;20052;-72
2023/03/12 13:34:32;;;;;;;2.15;0.30;;;;;;;;;;5040839;28;20037;-72
2023/03/12 13:37:00;;;;;;;3.10;0.45;;;;;;;;;;5047105;28;20035;-72
2023/03/12 13:39:36;;;;;;;5.18;1.08;;;;;;;;;;5040161;28;20041;-72
2023/03/12 13:42:22;;;;;;;3.85;0.75;;;;;;;;;;5024726;28;20486;-72
2023/03/12 13:44:48;;;;;;;3.85;0.65;;;;;;;;;;5038784;28;20029;-72
2023/03/12 13:47:27;;;;;;;4.18;1.13;;;;;;;;;;5047587;28;21158;-72
2023/03/12 13:49:58;;;;;;;3.83;0.47;;;;;;;;;;5041210;28;21036;-72
2023/03/12 13:52:27;;;;;;;1.30;0.40;;;;;;;;;;5047035;28;20029;-72
2023/03/12 13:55:00;;;;;;;1.20;0.30;;;;;;;;;;5044062;28;20037;-72
2023/03/12 13:57:31;;;;;;;1.35;0.40;;;;;;;;;;5046250;28;20037;-72
2023/03/12 13:59:58;;;;;;;2.97;1.00;;;;;;;;;;5043218;28;20041;-72
2023/03/12 14:02:26;;;;;;;2.38;0.50;;;;;;;;;;5045029;28;20474;-72
2023/03/12 14:04:53;;;;;;;1.38;0.40;;;;;;;;;;5042378;28;20040;-72
2023/03/12 14:07:34;;;;;;;3.90;0.30;;;;;;;;;;5043666;28;20033;-72
2023/03/12 14:10:09;;;;;;;3.42;0.68;;;;;;;;;;5037672;28;20037;-72
2023/03/12 14:12:41;;;;;;;2.47;0.52;;;;;;;;;;5038560;28;20040;-72
2023/03/12 14:15:25;;;;;;;1.90;0.32;;;;;;;;;;5036585;28;20037;-72
2023/03/12 14:18:13;;;;;;;1.48;0.60;;;;;;;;;;5038361;28;20391;-72
2023/03/12 14:20:41;;;;;;;4.63;0.70;;;;;;;;;;5041836;28;20037;-72
2023/03/12 14:23:08;;;;;;;2.17;0.50;;;;;;;;;;5043818;28;20040;-72
2023/03/12 14:25:39;;;;;;;2.90;0.60;;;;;;;;;;5042356;28;20033;-72
2023/03/12 14:28:11;;;;;;;5.72;0.80;;;;;;;;;;5042070;28;20029;-72
2023/03/12 14:30:40;;;;;;;4.15;0.80;;;;;;;;;;5041961;28;20112;-72
2023/03/12 14:33:07;;;;;;;2.70;0.40;;;;;;;;;;5024747;28;20062;-72
2023/03/12 14:35:34;;;;;;;2.60;0.47;;;;;;;;;;5045543;28;20032;-72
2023/03/12 14:38:07;;;;;;;3.78;0.50;;;;;;;;;;5045839;28;20055;-72
2023/03/12 14:40:33;;;;;;;6.47;0.60;;;;;;;;;;5042849;28;20025;-72
2023/03/12 14:42:59;;;;;;;5.13;0.57;;;;;;;;;;5045323;28;20095;-72
2023/03/12 14:45:26;;;;;;;1.52;0.38;;;;;;;;;;5045188;28;20063;-72